createdAt,value
2019-03-31T00:07:14.499Z,20.10
2019-03-31T00:12:17.713Z,27.47
2019-03-31T00:17:21.415Z,13.87
2019-03-31T00:22:24.691Z,8.13
2019-03-31T00:27:28.041Z,9.63
2019-03-31T00:32:31.376Z,14.00
2019-03-31T00:37:34.693Z,10.30
2019-03-31T00:42:38.098Z,12.17
2019-03-31T00:47:41.446Z,17.70
2019-03-31T00:52:44.730Z,7.90
2019-03-31T00:57:48.035Z,12.60
2019-03-31T01:02:51.311Z,21.37
2019-03-31T01:07:54.770Z,8.63
2019-03-31T01:12:58.163Z,12.07
2019-03-31T01:18:01.827Z,14.70
2019-03-31T01:23:06.146Z,11.50
2019-03-31T01:28:09.970Z,11.07
2019-03-31T01:33:13.768Z,11.10
2019-03-31T01:38:17.628Z,16.00
2019-03-31T01:43:21.454Z,20.93
2019-03-31T01:48:24.996Z,5.77
2019-03-31T01:53:28.290Z,6.57
2019-03-31T01:58:31.839Z,10.60
2019-03-31T02:03:35.250Z,12.70
2019-03-31T02:08:40.052Z,9.70
2019-03-31T02:13:43.340Z,7.57
2019-03-31T02:24:33.664Z,14.63
2019-03-31T02:29:38.146Z,9.83
2019-03-31T02:34:41.654Z,9.80
2019-03-31T02:39:45.577Z,12.87
2019-03-31T02:44:49.854Z,6.30
2019-03-31T02:49:53.178Z,6.07
2019-03-31T02:54:57.032Z,7.20
2019-03-31T03:00:01.790Z,13.10
2019-03-31T03:05:18.836Z,6.10
2019-03-31T03:10:11.445Z,15.27
2019-03-31T03:15:26.283Z,10.40
2019-03-31T03:20:31.897Z,7.93
2019-03-31T03:25:35.169Z,11.43
2019-03-31T03:30:40.911Z,4.20
2019-03-31T03:35:44.694Z,8.47
2019-03-31T03:40:48.591Z,8.20
2019-03-31T03:45:51.811Z,5.23
2019-03-31T03:50:58.640Z,6.37
2019-03-31T03:56:03.315Z,5.43
2019-03-31T04:01:18.542Z,6.57
2019-03-31T04:06:22.125Z,6.37
2019-03-31T04:11:26.923Z,11.77
2019-03-31T04:16:30.240Z,8.67
2019-03-31T04:21:34.196Z,6.53
2019-03-31T04:26:37.494Z,5.03
2019-03-31T04:31:40.796Z,5.53
2019-03-31T04:36:44.593Z,2.63
2019-03-31T04:41:47.873Z,3.63
2019-03-31T04:46:51.246Z,5.03
2019-03-31T04:51:54.463Z,7.83
2019-03-31T04:56:57.838Z,5.33
2019-03-31T05:02:01.055Z,0.80
2019-03-31T05:07:04.839Z,6.33
2019-03-31T05:12:08.141Z,5.50
2019-03-31T05:17:11.328Z,6.43
2019-03-31T05:22:15.243Z,5.17
2019-03-31T05:27:18.546Z,6.53
2019-03-31T05:32:21.846Z,4.80
2019-03-31T05:37:27.365Z,5.47
2019-03-31T05:42:30.675Z,5.03
2019-03-31T05:47:34.108Z,4.40
2019-03-31T05:52:38.079Z,3.97
2019-03-31T05:57:41.473Z,3.10
2019-03-31T06:02:44.708Z,2.50
2019-03-31T06:07:48.342Z,5.33
2019-03-31T06:12:51.637Z,1.73
2019-03-31T06:17:54.931Z,1.77
2019-03-31T06:22:58.306Z,2.33
2019-03-31T06:28:01.596Z,2.87
2019-03-31T06:33:04.861Z,3.40
2019-03-31T06:38:08.229Z,1.23
2019-03-31T06:43:11.539Z,5.67
2019-03-31T06:48:14.811Z,7.00
2019-03-31T06:53:18.043Z,1.87
2019-03-31T06:58:21.327Z,3.17
2019-03-31T07:03:24.601Z,2.37
2019-03-31T07:08:27.788Z,1.40
2019-03-31T07:13:31.085Z,1.93
2019-03-31T07:18:34.353Z,1.57
2019-03-31T07:23:37.636Z,5.10
2019-03-31T07:28:40.888Z,0.83
2019-03-31T07:33:44.262Z,1.97
2019-03-31T07:38:48.014Z,0.93
2019-03-31T07:43:51.402Z,1.07
2019-03-31T07:48:55.102Z,2.27
2019-03-31T07:53:58.460Z,1.10
2019-03-31T07:59:02.669Z,2.73
2019-03-31T08:04:06.022Z,2.23
2019-03-31T08:09:09.192Z,3.17
2019-03-31T08:14:12.556Z,4.00
2019-03-31T08:19:15.816Z,4.00
2019-03-31T08:24:19.268Z,0.83
2019-03-31T08:29:22.581Z,2.20
2019-03-31T08:34:25.927Z,3.67
2019-03-31T08:39:29.261Z,0.60
2019-03-31T08:44:32.523Z,3.53
2019-03-31T08:49:35.811Z,2.07
2019-03-31T08:54:40.086Z,2.07
2019-03-31T08:59:43.425Z,1.53
2019-03-31T09:04:46.694Z,1.47
2019-03-31T09:09:50.047Z,3.57
2019-03-31T09:14:53.359Z,2.67
2019-03-31T09:19:56.761Z,1.07
2019-03-31T09:25:00.379Z,1.60
2019-03-31T09:30:05.497Z,1.30
2019-03-31T09:35:09.375Z,0.90
2019-03-31T09:40:13.376Z,0.80
2019-03-31T09:45:16.834Z,2.03
2019-03-31T09:50:20.933Z,2.80
2019-03-31T09:55:24.259Z,0.50
2019-03-31T10:00:48.251Z,1.17
2019-03-31T10:05:51.476Z,2.20
2019-03-31T10:10:54.721Z,5.13
2019-03-31T10:15:57.983Z,0.93
2019-03-31T10:21:01.560Z,0.97
2019-03-31T10:26:05.140Z,2.30
2019-03-31T10:31:08.445Z,1.27
2019-03-31T10:36:12.908Z,2.67
2019-03-31T10:41:16.333Z,3.00
2019-03-31T10:46:19.737Z,2.60
2019-03-31T10:51:23.002Z,2.13
2019-03-31T10:56:26.340Z,1.03
2019-03-31T11:01:29.616Z,0.83
2019-03-31T11:06:32.999Z,4.13
2019-03-31T11:11:36.296Z,4.23
2019-03-31T11:16:39.601Z,0.73
2019-03-31T11:22:02.283Z,1.77
2019-03-31T11:27:05.698Z,3.57
2019-03-31T11:32:08.896Z,2.23
2019-03-31T11:37:13.685Z,0.57
2019-03-31T11:42:17.239Z,0.60
2019-03-31T11:47:20.535Z,1.30
2019-03-31T11:52:25.116Z,2.10
2019-03-31T11:57:29.592Z,0.83
2019-03-31T12:02:33.503Z,2.87
2019-03-31T12:07:46.658Z,14.83
2019-03-31T12:12:42.834Z,2.97
2019-03-31T12:17:46.214Z,1.40
2019-03-31T12:22:49.403Z,1.87
2019-03-31T12:27:52.844Z,7.77
2019-03-31T12:32:56.330Z,6.97
2019-03-31T12:37:59.710Z,0.83
2019-03-31T12:43:03.343Z,3.87
2019-03-31T12:48:06.675Z,3.30
2019-03-31T12:53:09.994Z,7.67
2019-03-31T12:58:13.316Z,1.47
2019-03-31T13:03:16.672Z,2.10
2019-03-31T13:08:19.925Z,1.20
2019-03-31T13:13:23.289Z,1.37
2019-03-31T13:18:28.105Z,0.70
2019-03-31T13:23:31.917Z,6.30
2019-03-31T13:28:35.239Z,1.90
2019-03-31T13:33:39.668Z,2.40
2019-03-31T13:38:42.939Z,0.77
2019-03-31T13:43:46.227Z,2.70
2019-03-31T13:48:49.495Z,1.90
2019-03-31T13:53:52.809Z,1.67
2019-03-31T13:58:56.111Z,1.00
2019-03-31T14:03:59.362Z,2.50
2019-03-31T14:09:05.240Z,0.70
2019-03-31T14:14:08.594Z,1.57
2019-03-31T14:19:13.135Z,4.50
2019-03-31T14:24:16.636Z,2.67
2019-03-31T14:29:20.155Z,3.80
2019-03-31T14:34:23.514Z,1.33
2019-03-31T14:39:26.833Z,1.73
2019-03-31T14:44:30.040Z,1.53
2019-03-31T14:49:34.302Z,5.53
2019-03-31T14:54:37.645Z,2.20
2019-03-31T14:59:41.292Z,1.43
2019-03-31T15:04:44.706Z,4.40
2019-03-31T15:09:48.075Z,2.57
2019-03-31T15:14:51.262Z,1.17
2019-03-31T15:19:54.647Z,4.30
2019-03-31T15:24:58.120Z,2.03
2019-03-31T15:30:01.572Z,2.10
2019-03-31T15:35:06.320Z,1.93
2019-03-31T15:40:09.836Z,1.37
2019-03-31T15:45:13.188Z,3.50
2019-03-31T15:50:17.130Z,4.50
2019-03-31T15:55:20.599Z,1.17
2019-03-31T16:00:23.956Z,1.40
2019-03-31T16:05:27.991Z,1.10
2019-03-31T16:10:30.860Z,1.73
2019-03-31T16:15:33.687Z,2.40
2019-03-31T16:20:36.614Z,1.50
2019-03-31T16:25:42.703Z,2.00
2019-03-31T16:30:45.437Z,0.77
2019-03-31T16:35:48.197Z,1.93
2019-03-31T16:40:50.974Z,1.80
2019-03-31T16:45:53.903Z,1.57
2019-03-31T16:50:57.080Z,1.60
2019-03-31T16:55:59.834Z,0.60
2019-03-31T17:01:02.630Z,1.87
2019-03-31T17:06:05.437Z,2.73
2019-03-31T17:11:08.427Z,1.40
2019-03-31T17:16:11.330Z,4.23
2019-03-31T17:21:14.164Z,4.33
2019-03-31T17:26:16.922Z,2.10
2019-03-31T17:31:19.751Z,4.27
2019-03-31T17:36:22.467Z,0.80
2019-03-31T17:41:25.311Z,1.33
2019-03-31T17:46:28.073Z,1.70
2019-03-31T17:51:35.513Z,1.27
2019-03-31T17:56:44.301Z,2.33
2019-03-31T18:01:51.522Z,5.17
2019-03-31T18:07:03.563Z,3.53
2019-03-31T18:12:07.698Z,2.20
2019-03-31T18:17:10.587Z,2.73
2019-03-31T18:22:16.672Z,7.97
2019-03-31T18:27:18.920Z,1.50
2019-03-31T18:32:21.805Z,6.53
2019-03-31T18:37:24.788Z,5.60
2019-03-31T18:42:30.946Z,10.03
2019-03-31T18:47:33.785Z,6.90
2019-03-31T18:52:40.422Z,2.00
2019-03-31T18:58:18.298Z,2.50
2019-03-31T19:03:36.250Z,1.87
2019-03-31T19:09:07.618Z,5.43
2019-03-31T19:14:31.091Z,3.83
2019-03-31T19:19:56.704Z,2.97
2019-03-31T19:25:31.244Z,1.63
2019-03-31T19:30:54.430Z,2.87
2019-03-31T19:36:20.736Z,1.80
2019-03-31T19:41:55.441Z,2.10
2019-03-31T19:47:25.166Z,2.63
2019-03-31T19:52:52.104Z,5.60
2019-03-31T19:58:13.027Z,2.13
2019-03-31T20:03:34.020Z,2.93
2019-03-31T20:08:56.423Z,6.60
2019-03-31T20:14:24.662Z,4.17
2019-03-31T20:19:49.914Z,2.83
2019-03-31T20:25:00.950Z,3.73
2019-03-31T20:30:23.234Z,3.73
2019-03-31T20:35:44.264Z,2.17
2019-03-31T20:41:05.104Z,5.70
2019-03-31T20:46:09.243Z,2.80
2019-03-31T20:51:12.011Z,2.73
2019-03-31T20:56:14.905Z,4.77
2019-03-31T21:01:17.827Z,6.23
2019-03-31T21:06:20.608Z,3.23
2019-03-31T21:11:23.444Z,10.47
2019-03-31T21:16:26.233Z,7.07
2019-03-31T21:21:29.041Z,3.17
2019-03-31T21:26:31.856Z,2.63
2019-03-31T21:31:34.587Z,2.70
2019-03-31T21:36:37.328Z,2.87
2019-03-31T21:41:40.387Z,2.90
2019-03-31T21:46:43.114Z,6.57
2019-03-31T21:51:45.914Z,4.80
2019-03-31T21:56:49.838Z,2.87
2019-03-31T22:01:53.820Z,4.37
2019-03-31T22:06:56.606Z,4.03
2019-03-31T22:11:59.509Z,1.53
2019-03-31T22:17:03.268Z,1.60
2019-03-31T22:22:06.091Z,2.30
2019-03-31T22:27:08.917Z,3.53
2019-03-31T22:32:11.765Z,5.60
2019-03-31T22:37:14.707Z,3.83
2019-03-31T22:42:17.556Z,5.63
2019-03-31T22:47:20.383Z,6.07
2019-03-31T22:52:23.212Z,3.13
2019-03-31T22:57:25.975Z,5.53
2019-03-31T23:02:28.802Z,5.40
2019-03-31T23:07:31.608Z,1.60
2019-03-31T23:12:34.279Z,4.33
2019-03-31T23:17:37.060Z,1.43
2019-03-31T23:22:39.811Z,3.07
2019-03-31T23:27:42.587Z,4.10
2019-03-31T23:32:45.469Z,2.43
2019-03-31T23:37:48.249Z,4.93
2019-03-31T23:42:51.028Z,3.23
2019-03-31T23:47:53.825Z,1.03
2019-03-31T23:52:56.852Z,2.97
2019-03-31T23:57:59.814Z,1.93
